N88BL KAPA-KHND
Flight info
| Callsign | N88BL |
|---|---|
| Flight time | 1h 58m |
| Altitude | 32000 |
| Route | WNGSS1 TEHRU DCT EEEZY BOEGY2 |
| Aircraft | C525/L-SBDFGILORWY/CB2 |
Departure
| Time | 2026-04-25 21:21 |
|---|---|
| Airport | Centennial Airport (KAPA) |
Arrival
| Time | 2026-04-25 23:20 |
|---|---|
| Airport | Henderson Executive Airport (KHND) |
| Time | Latitude | Longitude | Altitude | Speed | Heading |
|---|---|---|---|---|---|
| 2026-04-25 20:39 | 39.57095 | -104.84782 | 5824 ft | 0 kts | 180° |
| 2026-04-25 21:13 | 39.57087 | -104.84783 | 5824 ft | 2 kts | 188° |
| 2026-04-25 21:14 | 39.57072 | -104.84808 | 5824 ft | 3 kts | 268° |
| 2026-04-25 21:14 | 39.57072 | -104.84843 | 5824 ft | 4 kts | 268° |
| 2026-04-25 21:14 | 39.57091 | -104.84885 | 5824 ft | 6 kts | 345° |
| 2026-04-25 21:14 | 39.57124 | -104.84892 | 5824 ft | 3 kts | 326° |
| 2026-04-25 21:15 | 39.57130 | -104.84899 | 5824 ft | 0 kts | 301° |
| 2026-04-25 21:16 | 39.57130 | -104.84900 | 5824 ft | 0 kts | 299° |
| 2026-04-25 21:16 | 39.57132 | -104.84929 | 5824 ft | 5 kts | 251° |
| 2026-04-25 21:16 | 39.57081 | -104.84946 | 5824 ft | 9 kts | 175° |
| 2026-04-25 21:16 | 39.57000 | -104.84942 | 5824 ft | 13 kts | 178° |
| 2026-04-25 21:17 | 39.56895 | -104.84937 | 5824 ft | 16 kts | 178° |
| 2026-04-25 21:17 | 39.56783 | -104.84932 | 5824 ft | 14 kts | 178° |
| 2026-04-25 21:17 | 39.56682 | -104.84927 | 5824 ft | 15 kts | 177° |
| 2026-04-25 21:17 | 39.56568 | -104.84923 | 5824 ft | 17 kts | 177° |
| 2026-04-25 21:18 | 39.56438 | -104.84916 | 5824 ft | 19 kts | 180° |
| 2026-04-25 21:18 | 39.56294 | -104.84909 | 5824 ft | 21 kts | 178° |
| 2026-04-25 21:18 | 39.56146 | -104.84901 | 5824 ft | 21 kts | 176° |
| 2026-04-25 21:18 | 39.56000 | -104.84896 | 5824 ft | 19 kts | 178° |
| 2026-04-25 21:19 | 39.55870 | -104.84888 | 5824 ft | 17 kts | 178° |
| 2026-04-25 21:19 | 39.55756 | -104.84884 | 5824 ft | 15 kts | 177° |
| 2026-04-25 21:19 | 39.55689 | -104.84889 | 5824 ft | 3 kts | 224° |
| 2026-04-25 21:19 | 39.55683 | -104.84914 | 5824 ft | 3 kts | 268° |
| 2026-04-25 21:20 | 39.55681 | -104.84962 | 5824 ft | 6 kts | 267° |
| 2026-04-25 21:20 | 39.55682 | -104.85006 | 5824 ft | 8 kts | 291° |
| 2026-04-25 21:20 | 39.55774 | -104.85026 | 5824 ft | 18 kts | 358° |
| 2026-04-25 21:20 | 39.56053 | -104.85038 | 5824 ft | 65 kts | 358° |
| 2026-04-25 21:21 | 39.56686 | -104.85068 | 5825 ft | 114 kts | 358° |
| 2026-04-25 21:21 | 39.57576 | -104.85111 | 5888 ft | 144 kts | 359° |
| 2026-04-25 21:21 | 39.58640 | -104.85160 | 6298 ft | 155 kts | 356° |
| 2026-04-25 21:21 | 39.59663 | -104.85567 | 6789 ft | 161 kts | 327° |
| 2026-04-25 21:22 | 39.60524 | -104.86556 | 7249 ft | 168 kts | 316° |
| 2026-04-25 21:22 | 39.61377 | -104.87652 | 7700 ft | 177 kts | 313° |
| 2026-04-25 21:22 | 39.62248 | -104.88856 | 8031 ft | 193 kts | 312° |
| 2026-04-25 21:22 | 39.63271 | -104.90190 | 8138 ft | 223 kts | 315° |
| 2026-04-25 21:23 | 39.64475 | -104.91727 | 8094 ft | 257 kts | 315° |
| 2026-04-25 21:23 | 39.65812 | -104.93439 | 8059 ft | 285 kts | 314° |
| 2026-04-25 21:23 | 39.67275 | -104.95366 | 8042 ft | 308 kts | 314° |
| 2026-04-25 21:23 | 39.68796 | -104.97353 | 8294 ft | 300 kts | 314° |
| 2026-04-25 21:24 | 39.70250 | -104.99226 | 9118 ft | 288 kts | 315° |
| 2026-04-25 21:24 | 39.71656 | -105.00957 | 10039 ft | 274 kts | 315° |
| 2026-04-25 21:24 | 39.73004 | -105.02573 | 10964 ft | 259 kts | 315° |
| 2026-04-25 21:24 | 39.74326 | -105.04110 | 11697 ft | 252 kts | 315° |
| 2026-04-25 21:25 | 39.75646 | -105.05620 | 12173 ft | 255 kts | 315° |
| 2026-04-25 21:25 | 39.76747 | -105.07411 | 12692 ft | 250 kts | 291° |
| 2026-04-25 21:25 | 39.76876 | -105.09591 | 13205 ft | 245 kts | 254° |
| 2026-04-25 21:25 | 39.76114 | -105.11546 | 13759 ft | 243 kts | 240° |
| 2026-04-25 21:26 | 39.75230 | -105.13445 | 14197 ft | 246 kts | 240° |
| 2026-04-25 21:26 | 39.74365 | -105.15356 | 14587 ft | 248 kts | 241° |
| 2026-04-25 21:26 | 39.73498 | -105.17321 | 14951 ft | 252 kts | 241° |
| 2026-04-25 21:26 | 39.72601 | -105.19260 | 15463 ft | 250 kts | 240° |
| 2026-04-25 21:27 | 39.71724 | -105.21214 | 15821 ft | 254 kts | 241° |
| 2026-04-25 21:27 | 39.70830 | -105.23209 | 16233 ft | 254 kts | 241° |
| 2026-04-25 21:27 | 39.69955 | -105.25193 | 16688 ft | 253 kts | 242° |
| 2026-04-25 21:27 | 39.69095 | -105.27192 | 17033 ft | 257 kts | 243° |
| 2026-04-25 21:28 | 39.68246 | -105.29250 | 17470 ft | 256 kts | 243° |
| 2026-04-25 21:28 | 39.67415 | -105.31293 | 17892 ft | 255 kts | 244° |
| 2026-04-25 21:28 | 39.66638 | -105.33389 | 18152 ft | 260 kts | 246° |
| 2026-04-25 21:28 | 39.65909 | -105.35523 | 18519 ft | 261 kts | 247° |
| 2026-04-25 21:29 | 39.65155 | -105.37668 | 18926 ft | 259 kts | 246° |
| 2026-04-25 21:29 | 39.64372 | -105.39806 | 19037 ft | 262 kts | 245° |
| 2026-04-25 21:29 | 39.63558 | -105.41936 | 19212 ft | 262 kts | 244° |
| 2026-04-25 21:29 | 39.62729 | -105.44046 | 19363 ft | 264 kts | 244° |
| 2026-04-25 21:30 | 39.61880 | -105.46159 | 19569 ft | 263 kts | 244° |
| 2026-04-25 21:30 | 39.61026 | -105.48250 | 19706 ft | 264 kts | 243° |
| 2026-04-25 21:30 | 39.60149 | -105.50375 | 19850 ft | 266 kts | 243° |
| 2026-04-25 21:30 | 39.59565 | -105.51776 | 20066 ft | 262 kts | 243° |
| 2026-04-25 21:31 | 39.58374 | -105.54618 | 20260 ft | 266 kts | 243° |
| 2026-04-25 21:31 | 39.57484 | -105.56730 | 20534 ft | 267 kts | 243° |
| 2026-04-25 21:31 | 39.56586 | -105.58852 | 20853 ft | 268 kts | 243° |
| 2026-04-25 21:31 | 39.55696 | -105.60949 | 21200 ft | 267 kts | 243° |
| 2026-04-25 21:32 | 39.54932 | -105.63158 | 21423 ft | 270 kts | 250° |
| 2026-04-25 21:32 | 39.54281 | -105.65449 | 21825 ft | 266 kts | 251° |
| 2026-04-25 21:32 | 39.53644 | -105.67779 | 22028 ft | 270 kts | 251° |
| 2026-04-25 21:32 | 39.53015 | -105.70093 | 22297 ft | 271 kts | 251° |
| 2026-04-25 21:33 | 39.52394 | -105.72368 | 22642 ft | 269 kts | 251° |
| 2026-04-25 21:33 | 39.51757 | -105.74693 | 22868 ft | 271 kts | 251° |
| 2026-04-25 21:33 | 39.51122 | -105.77003 | 23106 ft | 273 kts | 251° |
| 2026-04-25 21:33 | 39.50488 | -105.79299 | 23412 ft | 271 kts | 251° |
| 2026-04-25 21:34 | 39.49848 | -105.81613 | 23681 ft | 271 kts | 251° |
| 2026-04-25 21:34 | 39.49212 | -105.83910 | 23875 ft | 273 kts | 251° |
| 2026-04-25 21:34 | 39.48574 | -105.86206 | 24166 ft | 272 kts | 251° |
| 2026-04-25 21:34 | 39.47926 | -105.88537 | 24423 ft | 272 kts | 251° |
| 2026-04-25 21:35 | 39.47280 | -105.90856 | 24606 ft | 274 kts | 251° |
| 2026-04-25 21:35 | 39.46626 | -105.93203 | 24858 ft | 274 kts | 251° |
| 2026-04-25 21:35 | 39.45983 | -105.95506 | 25044 ft | 275 kts | 251° |
| 2026-04-25 21:35 | 39.45330 | -105.97842 | 25306 ft | 273 kts | 251° |
| 2026-04-25 21:36 | 39.44686 | -106.00144 | 25481 ft | 274 kts | 251° |
| 2026-04-25 21:36 | 39.44032 | -106.02482 | 25691 ft | 274 kts | 252° |
| 2026-04-25 21:36 | 39.43375 | -106.04827 | 25817 ft | 277 kts | 251° |
| 2026-04-25 21:36 | 39.42719 | -106.07162 | 26059 ft | 276 kts | 251° |
| 2026-04-25 21:37 | 39.42056 | -106.09525 | 26205 ft | 277 kts | 251° |
| 2026-04-25 21:37 | 39.41617 | -106.11087 | 26343 ft | 277 kts | 252° |
| 2026-04-25 21:37 | 39.40742 | -106.14196 | 26609 ft | 277 kts | 251° |
| 2026-04-25 21:37 | 39.40074 | -106.16569 | 26753 ft | 278 kts | 251° |
| 2026-04-25 21:38 | 39.39410 | -106.18924 | 26966 ft | 277 kts | 252° |
| 2026-04-25 21:38 | 39.38750 | -106.21265 | 27109 ft | 278 kts | 252° |
| 2026-04-25 21:38 | 39.38074 | -106.23659 | 27289 ft | 278 kts | 252° |
| 2026-04-25 21:38 | 39.37413 | -106.25997 | 27458 ft | 278 kts | 252° |
| 2026-04-25 21:39 | 39.36742 | -106.28369 | 27567 ft | 280 kts | 251° |
| 2026-04-25 21:39 | 39.36077 | -106.30716 | 27777 ft | 278 kts | 251° |
| 2026-04-25 21:39 | 39.35401 | -106.33099 | 27851 ft | 281 kts | 251° |
| 2026-04-25 21:39 | 39.34737 | -106.35437 | 28273 ft | 272 kts | 252° |
| 2026-04-25 21:40 | 39.34096 | -106.37692 | 28653 ft | 265 kts | 251° |
| 2026-04-25 21:40 | 39.33467 | -106.39903 | 29033 ft | 258 kts | 251° |
| 2026-04-25 21:40 | 39.32858 | -106.42045 | 29280 ft | 256 kts | 252° |
| 2026-04-25 21:40 | 39.32241 | -106.44209 | 29535 ft | 253 kts | 251° |
| 2026-04-25 21:41 | 39.31630 | -106.46359 | 29642 ft | 256 kts | 251° |
| 2026-04-25 21:41 | 39.31021 | -106.48495 | 29857 ft | 255 kts | 252° |
| 2026-04-25 21:41 | 39.30397 | -106.50682 | 30039 ft | 257 kts | 252° |
| 2026-04-25 21:41 | 39.29779 | -106.52848 | 30232 ft | 257 kts | 251° |
| 2026-04-25 21:42 | 39.29156 | -106.55027 | 30437 ft | 258 kts | 251° |
| 2026-04-25 21:42 | 39.28539 | -106.57183 | 30672 ft | 257 kts | 251° |
| 2026-04-25 21:42 | 39.27910 | -106.59377 | 30819 ft | 258 kts | 251° |
| 2026-04-25 21:42 | 39.27293 | -106.61535 | 31000 ft | 259 kts | 251° |
| 2026-04-25 21:43 | 39.26660 | -106.63738 | 31158 ft | 260 kts | 251° |
| 2026-04-25 21:43 | 39.26027 | -106.65945 | 31360 ft | 260 kts | 251° |
| 2026-04-25 21:43 | 39.25389 | -106.68165 | 31561 ft | 259 kts | 251° |
| 2026-04-25 21:43 | 39.24759 | -106.70354 | 31731 ft | 261 kts | 251° |
| 2026-04-25 21:44 | 39.24079 | -106.72552 | 31921 ft | 262 kts | 247° |
| 2026-04-25 21:44 | 39.23266 | -106.74665 | 32038 ft | 265 kts | 245° |
| 2026-04-25 21:44 | 39.21492 | -106.79013 | 32044 ft | 276 kts | 244° |
| 2026-04-25 21:45 | 39.20587 | -106.81226 | 32045 ft | 281 kts | 245° |
| 2026-04-25 21:45 | 39.19968 | -106.82739 | 32044 ft | 284 kts | 244° |
| 2026-04-25 21:45 | 39.18727 | -106.85770 | 32045 ft | 290 kts | 244° |
| 2026-04-25 21:45 | 39.17777 | -106.88097 | 32055 ft | 293 kts | 245° |
| 2026-04-25 21:46 | 39.16827 | -106.90430 | 32050 ft | 297 kts | 245° |
| 2026-04-25 21:46 | 39.15855 | -106.92807 | 32056 ft | 300 kts | 245° |
| 2026-04-25 21:46 | 39.14874 | -106.95209 | 32060 ft | 303 kts | 245° |
| 2026-04-25 21:47 | 39.12893 | -107.00053 | 32079 ft | 308 kts | 245° |
| 2026-04-25 21:47 | 39.10873 | -107.04990 | 32095 ft | 312 kts | 245° |
| 2026-04-25 21:48 | 39.08831 | -107.09975 | 32100 ft | 315 kts | 244° |
| 2026-04-25 21:48 | 39.06774 | -107.14988 | 32108 ft | 318 kts | 244° |
| 2026-04-25 21:49 | 39.04681 | -107.20082 | 32111 ft | 320 kts | 244° |
| 2026-04-25 21:49 | 39.02586 | -107.25172 | 32116 ft | 322 kts | 244° |
| 2026-04-25 21:50 | 39.00485 | -107.30270 | 32110 ft | 324 kts | 245° |
| 2026-04-25 21:50 | 38.98360 | -107.35418 | 32134 ft | 325 kts | 244° |
| 2026-04-25 21:51 | 38.96224 | -107.40585 | 32142 ft | 325 kts | 244° |
| 2026-04-25 21:51 | 38.94080 | -107.45757 | 32134 ft | 326 kts | 244° |
| 2026-04-25 21:52 | 38.91937 | -107.50919 | 32121 ft | 326 kts | 244° |
| 2026-04-25 21:52 | 38.89776 | -107.56116 | 32132 ft | 325 kts | 244° |
| 2026-04-25 21:53 | 38.87611 | -107.61321 | 32098 ft | 326 kts | 245° |
| 2026-04-25 21:53 | 38.85447 | -107.66505 | 32079 ft | 326 kts | 244° |
| 2026-04-25 21:53 | 38.84375 | -107.69074 | 32192 ft | 324 kts | 244° |
| 2026-04-25 21:54 | 38.83316 | -107.71607 | 32319 ft | 321 kts | 244° |
| 2026-04-25 21:54 | 38.82250 | -107.74156 | 32460 ft | 319 kts | 244° |
| 2026-04-25 21:54 | 38.81193 | -107.76681 | 32591 ft | 317 kts | 244° |
| 2026-04-25 21:54 | 38.80152 | -107.79164 | 32727 ft | 315 kts | 244° |
| 2026-04-25 21:55 | 38.79109 | -107.81651 | 32867 ft | 313 kts | 244° |
| 2026-04-25 21:55 | 38.78077 | -107.84112 | 33000 ft | 311 kts | 244° |
| 2026-04-25 21:55 | 38.77045 | -107.86563 | 33131 ft | 310 kts | 244° |
| 2026-04-25 21:55 | 38.76041 | -107.88960 | 33263 ft | 308 kts | 244° |
| 2026-04-25 21:56 | 38.75014 | -107.91402 | 33399 ft | 307 kts | 244° |
| 2026-04-25 21:56 | 38.72984 | -107.96223 | 33670 ft | 304 kts | 244° |
| 2026-04-25 21:56 | 38.71976 | -107.98616 | 33811 ft | 303 kts | 244° |
| 2026-04-25 21:57 | 38.70974 | -108.00989 | 33932 ft | 302 kts | 244° |
| 2026-04-25 21:57 | 38.68953 | -108.05778 | 33962 ft | 305 kts | 244° |
| 2026-04-25 21:58 | 38.66912 | -108.10604 | 33982 ft | 309 kts | 244° |
| 2026-04-25 21:58 | 38.64846 | -108.15481 | 34002 ft | 312 kts | 244° |
| 2026-04-25 21:59 | 38.62763 | -108.20390 | 34012 ft | 314 kts | 244° |
| 2026-04-25 21:59 | 38.60681 | -108.25288 | 34037 ft | 316 kts | 244° |
| 2026-04-25 22:00 | 38.58606 | -108.30163 | 34370 ft | 309 kts | 244° |
| 2026-04-25 22:00 | 38.57570 | -108.32592 | 34521 ft | 306 kts | 244° |
| 2026-04-25 22:00 | 38.56564 | -108.34949 | 34670 ft | 303 kts | 244° |
| 2026-04-25 22:00 | 38.55553 | -108.37317 | 34825 ft | 300 kts | 244° |
| 2026-04-25 22:01 | 38.54564 | -108.39632 | 34977 ft | 297 kts | 244° |
| 2026-04-25 22:01 | 38.53575 | -108.41946 | 35130 ft | 294 kts | 244° |
| 2026-04-25 22:01 | 38.52597 | -108.44231 | 35275 ft | 291 kts | 244° |
| 2026-04-25 22:01 | 38.51947 | -108.45749 | 35372 ft | 289 kts | 244° |
| 2026-04-25 22:02 | 38.50672 | -108.48728 | 35564 ft | 285 kts | 244° |
| 2026-04-25 22:02 | 38.49717 | -108.50954 | 35711 ft | 282 kts | 244° |
| 2026-04-25 22:02 | 38.48791 | -108.53113 | 35852 ft | 279 kts | 244° |
| 2026-04-25 22:02 | 38.47860 | -108.55281 | 35988 ft | 276 kts | 245° |
| 2026-04-25 22:03 | 38.46924 | -108.57462 | 36031 ft | 278 kts | 244° |
| 2026-04-25 22:03 | 38.45989 | -108.59641 | 36023 ft | 280 kts | 244° |
| 2026-04-25 22:03 | 38.45016 | -108.61905 | 36024 ft | 283 kts | 245° |
| 2026-04-25 22:03 | 38.44044 | -108.64163 | 36017 ft | 285 kts | 244° |
| 2026-04-25 22:04 | 38.43075 | -108.66414 | 36025 ft | 287 kts | 244° |
| 2026-04-25 22:04 | 38.42099 | -108.68679 | 36016 ft | 290 kts | 244° |
| 2026-04-25 22:04 | 38.41120 | -108.70950 | 35995 ft | 293 kts | 244° |
| 2026-04-25 22:04 | 38.40123 | -108.73261 | 35998 ft | 294 kts | 244° |
| 2026-04-25 22:05 | 38.39132 | -108.75554 | 36002 ft | 297 kts | 244° |
| 2026-04-25 22:05 | 38.38124 | -108.77885 | 35994 ft | 299 kts | 244° |
| 2026-04-25 22:05 | 38.36092 | -108.82580 | 35979 ft | 302 kts | 244° |
| 2026-04-25 22:06 | 38.34045 | -108.87304 | 35966 ft | 305 kts | 244° |
| 2026-04-25 22:06 | 38.31972 | -108.92076 | 35961 ft | 308 kts | 243° |
| 2026-04-25 22:07 | 38.30222 | -108.96103 | 35960 ft | 309 kts | 243° |
| 2026-04-25 22:07 | 38.27774 | -109.01726 | 35952 ft | 311 kts | 244° |
| 2026-04-25 22:08 | 38.25646 | -109.06606 | 35952 ft | 313 kts | 243° |
| 2026-04-25 22:08 | 38.23525 | -109.11461 | 35963 ft | 313 kts | 244° |
| 2026-04-25 22:09 | 38.21382 | -109.16360 | 35963 ft | 314 kts | 244° |
| 2026-04-25 22:09 | 38.19214 | -109.21310 | 35958 ft | 315 kts | 243° |
| 2026-04-25 22:10 | 38.17043 | -109.26257 | 35966 ft | 315 kts | 243° |
| 2026-04-25 22:10 | 38.14901 | -109.31129 | 36170 ft | 310 kts | 244° |
| 2026-04-25 22:11 | 38.13820 | -109.33585 | 36311 ft | 307 kts | 244° |
| 2026-04-25 22:11 | 38.12788 | -109.35929 | 36445 ft | 304 kts | 243° |
| 2026-04-25 22:11 | 38.11729 | -109.38330 | 36573 ft | 301 kts | 243° |
| 2026-04-25 22:11 | 38.10680 | -109.40710 | 36721 ft | 298 kts | 244° |
| 2026-04-25 22:12 | 38.09648 | -109.43048 | 36859 ft | 296 kts | 243° |
| 2026-04-25 22:12 | 38.08630 | -109.45354 | 36989 ft | 293 kts | 243° |
| 2026-04-25 22:12 | 38.07624 | -109.47631 | 37126 ft | 291 kts | 243° |
| 2026-04-25 22:12 | 38.06960 | -109.49131 | 37230 ft | 290 kts | 244° |
| 2026-04-25 22:13 | 38.05638 | -109.52119 | 37417 ft | 288 kts | 244° |
| 2026-04-25 22:13 | 38.04659 | -109.54330 | 37567 ft | 286 kts | 244° |
| 2026-04-25 22:13 | 38.03674 | -109.56554 | 37705 ft | 285 kts | 244° |
| 2026-04-25 22:13 | 38.02682 | -109.58791 | 37840 ft | 283 kts | 244° |
| 2026-04-25 22:14 | 38.01691 | -109.61024 | 37930 ft | 283 kts | 244° |
| 2026-04-25 22:14 | 38.00702 | -109.63252 | 37961 ft | 285 kts | 244° |
| 2026-04-25 22:14 | 37.99702 | -109.65506 | 37956 ft | 287 kts | 243° |
| 2026-04-25 22:14 | 37.98698 | -109.67763 | 37956 ft | 290 kts | 244° |
| 2026-04-25 22:15 | 37.97674 | -109.70067 | 37955 ft | 292 kts | 243° |
| 2026-04-25 22:15 | 37.96648 | -109.72372 | 37953 ft | 295 kts | 243° |
| 2026-04-25 22:15 | 37.95620 | -109.74679 | 37949 ft | 297 kts | 243° |
| 2026-04-25 22:16 | 37.93549 | -109.79322 | 37947 ft | 301 kts | 243° |
| 2026-04-25 22:16 | 37.91468 | -109.83978 | 37939 ft | 304 kts | 243° |
| 2026-04-25 22:17 | 37.89330 | -109.88757 | 37942 ft | 307 kts | 243° |
| 2026-04-25 22:17 | 37.87203 | -109.93504 | 37944 ft | 310 kts | 243° |
| 2026-04-25 22:18 | 37.85054 | -109.98293 | 37948 ft | 312 kts | 243° |
| 2026-04-25 22:18 | 37.82893 | -110.03101 | 37942 ft | 314 kts | 243° |
| 2026-04-25 22:19 | 37.80721 | -110.07925 | 37945 ft | 316 kts | 243° |
| 2026-04-25 22:19 | 37.78528 | -110.12791 | 37938 ft | 317 kts | 243° |
| 2026-04-25 22:20 | 37.76318 | -110.17685 | 37926 ft | 319 kts | 243° |
| 2026-04-25 22:20 | 37.74101 | -110.22589 | 37920 ft | 320 kts | 243° |
| 2026-04-25 22:21 | 37.71829 | -110.27529 | 37916 ft | 321 kts | 243° |
| 2026-04-25 22:21 | 37.69628 | -110.32563 | 37935 ft | 322 kts | 243° |
| 2026-04-25 22:22 | 37.67337 | -110.37577 | 37923 ft | 323 kts | 243° |
| 2026-04-25 22:22 | 37.65025 | -110.42626 | 37910 ft | 324 kts | 242° |
| 2026-04-25 22:23 | 37.62724 | -110.47657 | 37912 ft | 324 kts | 243° |
| 2026-04-25 22:23 | 37.60423 | -110.52689 | 37908 ft | 324 kts | 243° |
| 2026-04-25 22:24 | 37.58123 | -110.57715 | 37905 ft | 324 kts | 243° |
| 2026-04-25 22:24 | 37.55818 | -110.62749 | 37911 ft | 324 kts | 243° |
| 2026-04-25 22:25 | 37.53524 | -110.67752 | 37907 ft | 324 kts | 242° |
| 2026-04-25 22:25 | 37.51210 | -110.72788 | 37895 ft | 325 kts | 242° |
| 2026-04-25 22:26 | 37.48931 | -110.77744 | 37903 ft | 325 kts | 243° |
| 2026-04-25 22:26 | 37.46606 | -110.82793 | 37909 ft | 326 kts | 242° |
| 2026-04-25 22:27 | 37.44289 | -110.87815 | 37898 ft | 326 kts | 242° |
| 2026-04-25 22:27 | 37.41962 | -110.92851 | 37906 ft | 326 kts | 242° |
| 2026-04-25 22:28 | 37.39652 | -110.97845 | 37919 ft | 326 kts | 242° |
| 2026-04-25 22:28 | 37.37322 | -111.02870 | 37708 ft | 326 kts | 243° |
| 2026-04-25 22:28 | 37.36167 | -111.05360 | 37095 ft | 324 kts | 242° |
| 2026-04-25 22:29 | 37.35012 | -111.07847 | 36504 ft | 320 kts | 242° |
| 2026-04-25 22:29 | 37.33877 | -111.10290 | 35952 ft | 316 kts | 242° |
| 2026-04-25 22:29 | 37.32741 | -111.12733 | 35486 ft | 313 kts | 242° |
| 2026-04-25 22:30 | 37.30497 | -111.17554 | 34562 ft | 308 kts | 241° |
| 2026-04-25 22:30 | 37.29401 | -111.19907 | 34113 ft | 306 kts | 241° |
| 2026-04-25 22:30 | 37.28291 | -111.22288 | 33550 ft | 304 kts | 241° |
| 2026-04-25 22:30 | 37.27573 | -111.23826 | 33185 ft | 303 kts | 240° |
| 2026-04-25 22:31 | 37.26125 | -111.26926 | 32447 ft | 300 kts | 240° |
| 2026-04-25 22:31 | 37.25043 | -111.29243 | 31981 ft | 295 kts | 240° |
| 2026-04-25 22:31 | 37.24000 | -111.31470 | 31896 ft | 281 kts | 240° |
| 2026-04-25 22:31 | 37.23016 | -111.33573 | 31884 ft | 269 kts | 240° |
| 2026-04-25 22:32 | 37.22052 | -111.35632 | 31901 ft | 269 kts | 240° |
| 2026-04-25 22:32 | 37.21096 | -111.37672 | 31910 ft | 271 kts | 240° |
| 2026-04-25 22:32 | 37.20132 | -111.39726 | 31918 ft | 272 kts | 240° |
| 2026-04-25 22:32 | 37.19166 | -111.41788 | 31918 ft | 274 kts | 240° |
| 2026-04-25 22:33 | 37.18193 | -111.43861 | 31920 ft | 275 kts | 241° |
| 2026-04-25 22:33 | 37.17162 | -111.45913 | 31895 ft | 277 kts | 240° |
| 2026-04-25 22:33 | 37.16168 | -111.47978 | 31918 ft | 276 kts | 240° |
| 2026-04-25 22:33 | 37.15210 | -111.50047 | 31912 ft | 277 kts | 241° |
| 2026-04-25 22:34 | 37.14239 | -111.52147 | 31917 ft | 278 kts | 241° |
| 2026-04-25 22:34 | 37.13264 | -111.54250 | 31909 ft | 279 kts | 241° |
| 2026-04-25 22:34 | 37.12280 | -111.56364 | 31907 ft | 280 kts | 241° |
| 2026-04-25 22:34 | 37.11288 | -111.58485 | 31910 ft | 281 kts | 240° |
| 2026-04-25 22:35 | 37.10293 | -111.60606 | 31901 ft | 282 kts | 241° |
| 2026-04-25 22:35 | 37.09302 | -111.62714 | 31904 ft | 282 kts | 240° |
| 2026-04-25 22:35 | 37.08304 | -111.64835 | 31912 ft | 282 kts | 240° |
| 2026-04-25 22:35 | 37.07265 | -111.67038 | 31906 ft | 284 kts | 240° |
| 2026-04-25 22:36 | 37.06256 | -111.69174 | 31904 ft | 285 kts | 240° |
| 2026-04-25 22:36 | 37.05235 | -111.71334 | 31907 ft | 288 kts | 240° |
| 2026-04-25 22:36 | 37.04204 | -111.73515 | 31905 ft | 293 kts | 240° |
| 2026-04-25 22:36 | 37.03145 | -111.75751 | 31906 ft | 297 kts | 240° |
| 2026-04-25 22:37 | 37.00984 | -111.80307 | 31905 ft | 305 kts | 240° |
| 2026-04-25 22:37 | 36.98765 | -111.84978 | 31901 ft | 311 kts | 240° |
| 2026-04-25 22:38 | 36.96521 | -111.89694 | 31909 ft | 316 kts | 240° |
| 2026-04-25 22:38 | 36.94231 | -111.94501 | 31920 ft | 319 kts | 240° |
| 2026-04-25 22:39 | 36.91935 | -111.99313 | 31928 ft | 322 kts | 240° |
| 2026-04-25 22:39 | 36.89595 | -112.04208 | 31927 ft | 324 kts | 240° |
| 2026-04-25 22:40 | 36.87271 | -112.09064 | 31926 ft | 327 kts | 240° |
| 2026-04-25 22:40 | 36.84927 | -112.13956 | 31931 ft | 328 kts | 240° |
| 2026-04-25 22:41 | 36.82549 | -112.18910 | 31930 ft | 330 kts | 240° |
| 2026-04-25 22:41 | 36.80148 | -112.23907 | 31941 ft | 330 kts | 240° |
| 2026-04-25 22:42 | 36.77769 | -112.28848 | 31939 ft | 331 kts | 240° |
| 2026-04-25 22:42 | 36.75373 | -112.33817 | 31940 ft | 331 kts | 240° |
| 2026-04-25 22:43 | 36.73147 | -112.38920 | 31936 ft | 331 kts | 244° |
| 2026-04-25 22:43 | 36.71155 | -112.44154 | 31935 ft | 332 kts | 245° |
| 2026-04-25 22:44 | 36.69180 | -112.49359 | 31937 ft | 332 kts | 245° |
| 2026-04-25 22:44 | 36.67188 | -112.54582 | 31934 ft | 332 kts | 245° |
| 2026-04-25 22:45 | 36.65193 | -112.59792 | 31930 ft | 333 kts | 245° |
| 2026-04-25 22:45 | 36.63192 | -112.65003 | 31917 ft | 333 kts | 245° |
| 2026-04-25 22:46 | 36.61145 | -112.70322 | 31923 ft | 334 kts | 244° |
| 2026-04-25 22:46 | 36.59119 | -112.75578 | 31931 ft | 334 kts | 244° |
| 2026-04-25 22:47 | 36.57098 | -112.80808 | 31937 ft | 334 kts | 244° |
| 2026-04-25 22:47 | 36.55069 | -112.86047 | 31939 ft | 334 kts | 244° |
| 2026-04-25 22:48 | 36.53041 | -112.91279 | 31940 ft | 334 kts | 245° |
| 2026-04-25 22:48 | 36.51001 | -112.96533 | 31429 ft | 343 kts | 244° |
| 2026-04-25 22:49 | 36.49957 | -112.99214 | 30896 ft | 344 kts | 244° |
| 2026-04-25 22:49 | 36.48904 | -113.01921 | 30366 ft | 345 kts | 244° |
| 2026-04-25 22:49 | 36.47869 | -113.04580 | 29844 ft | 346 kts | 244° |
| 2026-04-25 22:49 | 36.46808 | -113.07301 | 29309 ft | 346 kts | 244° |
| 2026-04-25 22:50 | 36.45751 | -113.10010 | 28778 ft | 347 kts | 244° |
| 2026-04-25 22:50 | 36.44704 | -113.12689 | 28258 ft | 346 kts | 244° |
| 2026-04-25 22:50 | 36.43648 | -113.15393 | 27726 ft | 346 kts | 244° |
| 2026-04-25 22:50 | 36.42600 | -113.18073 | 27196 ft | 346 kts | 244° |
| 2026-04-25 22:51 | 36.41542 | -113.20773 | 26667 ft | 346 kts | 244° |
| 2026-04-25 22:51 | 36.40489 | -113.23467 | 26147 ft | 345 kts | 244° |
| 2026-04-25 22:51 | 36.39443 | -113.26134 | 25624 ft | 345 kts | 244° |
| 2026-04-25 22:51 | 36.38381 | -113.28838 | 25105 ft | 345 kts | 244° |
| 2026-04-25 22:52 | 36.37333 | -113.31503 | 24581 ft | 345 kts | 244° |
| 2026-04-25 22:52 | 36.36281 | -113.34187 | 24046 ft | 344 kts | 244° |
| 2026-04-25 22:52 | 36.35268 | -113.36856 | 23518 ft | 344 kts | 245° |
| 2026-04-25 22:52 | 36.34586 | -113.38663 | 23164 ft | 344 kts | 245° |
| 2026-04-25 22:53 | 36.33235 | -113.42249 | 22491 ft | 342 kts | 245° |
| 2026-04-25 22:53 | 36.32243 | -113.44879 | 21984 ft | 337 kts | 245° |
| 2026-04-25 22:53 | 36.31249 | -113.47511 | 21474 ft | 333 kts | 244° |
| 2026-04-25 22:53 | 36.30280 | -113.50073 | 20976 ft | 330 kts | 245° |
| 2026-04-25 22:54 | 36.29304 | -113.52650 | 20466 ft | 327 kts | 245° |
| 2026-04-25 22:54 | 36.28339 | -113.55196 | 19964 ft | 325 kts | 245° |
| 2026-04-25 22:54 | 36.27374 | -113.57737 | 19459 ft | 323 kts | 245° |
| 2026-04-25 22:54 | 36.26415 | -113.60258 | 18959 ft | 322 kts | 245° |
| 2026-04-25 22:55 | 36.25465 | -113.62753 | 18461 ft | 321 kts | 245° |
| 2026-04-25 22:55 | 36.24515 | -113.65247 | 17966 ft | 320 kts | 244° |
| 2026-04-25 22:55 | 36.23559 | -113.67757 | 17476 ft | 320 kts | 244° |
| 2026-04-25 22:55 | 36.22607 | -113.70252 | 16985 ft | 319 kts | 244° |
| 2026-04-25 22:56 | 36.21653 | -113.72753 | 16496 ft | 319 kts | 244° |
| 2026-04-25 22:56 | 36.20697 | -113.75256 | 16009 ft | 319 kts | 244° |
| 2026-04-25 22:56 | 36.19756 | -113.77718 | 15507 ft | 315 kts | 244° |
| 2026-04-25 22:56 | 36.18821 | -113.80165 | 15145 ft | 306 kts | 244° |
| 2026-04-25 22:57 | 36.17919 | -113.82520 | 15059 ft | 298 kts | 244° |
| 2026-04-25 22:57 | 36.17010 | -113.84891 | 15066 ft | 310 kts | 244° |
| 2026-04-25 22:57 | 36.16076 | -113.87328 | 15065 ft | 318 kts | 244° |
| 2026-04-25 22:57 | 36.15134 | -113.89781 | 15041 ft | 312 kts | 244° |
| 2026-04-25 22:58 | 36.14208 | -113.92194 | 15030 ft | 305 kts | 244° |
| 2026-04-25 22:58 | 36.13298 | -113.94563 | 15044 ft | 299 kts | 244° |
| 2026-04-25 22:58 | 36.12413 | -113.96866 | 15054 ft | 295 kts | 244° |
| 2026-04-25 22:58 | 36.11540 | -113.99135 | 15064 ft | 292 kts | 244° |
| 2026-04-25 22:59 | 36.10661 | -114.01417 | 15088 ft | 289 kts | 244° |
| 2026-04-25 22:59 | 36.09801 | -114.03649 | 15108 ft | 286 kts | 244° |
| 2026-04-25 22:59 | 36.08947 | -114.05863 | 15134 ft | 284 kts | 244° |
| 2026-04-25 22:59 | 36.08070 | -114.08069 | 15059 ft | 286 kts | 243° |
| 2026-04-25 23:00 | 36.07151 | -114.10327 | 14583 ft | 300 kts | 243° |
| 2026-04-25 23:00 | 36.06200 | -114.12653 | 14097 ft | 311 kts | 243° |
| 2026-04-25 23:00 | 36.05208 | -114.15080 | 13605 ft | 316 kts | 243° |
| 2026-04-25 23:00 | 36.04229 | -114.17476 | 13102 ft | 309 kts | 243° |
| 2026-04-25 23:01 | 36.03272 | -114.19817 | 12596 ft | 303 kts | 243° |
| 2026-04-25 23:01 | 36.02323 | -114.22140 | 12086 ft | 298 kts | 243° |
| 2026-04-25 23:01 | 36.01407 | -114.24391 | 11585 ft | 295 kts | 243° |
| 2026-04-25 23:01 | 36.00488 | -114.26657 | 11087 ft | 293 kts | 243° |
| 2026-04-25 23:02 | 35.99591 | -114.28885 | 10601 ft | 289 kts | 243° |
| 2026-04-25 23:02 | 35.98708 | -114.31101 | 10117 ft | 285 kts | 242° |
| 2026-04-25 23:02 | 35.97854 | -114.33185 | 9620 ft | 267 kts | 241° |
| 2026-04-25 23:02 | 35.97002 | -114.35239 | 9144 ft | 268 kts | 241° |
| 2026-04-25 23:03 | 35.96411 | -114.37420 | 8634 ft | 275 kts | 263° |
| 2026-04-25 23:03 | 35.96514 | -114.39792 | 8178 ft | 276 kts | 270° |
| 2026-04-25 23:03 | 35.96616 | -114.42151 | 7702 ft | 276 kts | 270° |
| 2026-04-25 23:03 | 35.96746 | -114.44500 | 7225 ft | 276 kts | 270° |
| 2026-04-25 23:04 | 35.96887 | -114.46841 | 7009 ft | 267 kts | 271° |
| 2026-04-25 23:04 | 35.96983 | -114.48341 | 6965 ft | 258 kts | 270° |
| 2026-04-25 23:04 | 35.97169 | -114.51178 | 6944 ft | 246 kts | 270° |
| 2026-04-25 23:04 | 35.97307 | -114.53288 | 6959 ft | 246 kts | 271° |
| 2026-04-25 23:05 | 35.97448 | -114.55404 | 6967 ft | 247 kts | 271° |
| 2026-04-25 23:05 | 35.97591 | -114.57537 | 6962 ft | 248 kts | 271° |
| 2026-04-25 23:05 | 35.97734 | -114.59639 | 6964 ft | 248 kts | 271° |
| 2026-04-25 23:05 | 35.97881 | -114.61762 | 6963 ft | 248 kts | 271° |
| 2026-04-25 23:06 | 35.98027 | -114.63890 | 6969 ft | 248 kts | 271° |
| 2026-04-25 23:06 | 35.98175 | -114.66047 | 6961 ft | 249 kts | 270° |
| 2026-04-25 23:06 | 35.98323 | -114.68219 | 6967 ft | 249 kts | 270° |
| 2026-04-25 23:06 | 35.98469 | -114.70348 | 6956 ft | 250 kts | 271° |
| 2026-04-25 23:07 | 35.98702 | -114.72478 | 6959 ft | 250 kts | 274° |
| 2026-04-25 23:07 | 35.98983 | -114.74572 | 6957 ft | 245 kts | 275° |
| 2026-04-25 23:07 | 35.99271 | -114.76607 | 6942 ft | 233 kts | 276° |
| 2026-04-25 23:07 | 35.99491 | -114.78522 | 6943 ft | 221 kts | 271° |
| 2026-04-25 23:08 | 35.99632 | -114.80371 | 6946 ft | 211 kts | 270° |
| 2026-04-25 23:08 | 35.99758 | -114.82152 | 6948 ft | 203 kts | 270° |
| 2026-04-25 23:08 | 35.99878 | -114.83861 | 6951 ft | 196 kts | 269° |
| 2026-04-25 23:08 | 35.99997 | -114.85510 | 6952 ft | 190 kts | 270° |
| 2026-04-25 23:09 | 36.00085 | -114.87116 | 6946 ft | 183 kts | 262° |
| 2026-04-25 23:09 | 35.99785 | -114.88609 | 6955 ft | 175 kts | 248° |
| 2026-04-25 23:09 | 35.99390 | -114.90001 | 6926 ft | 173 kts | 249° |
| 2026-04-25 23:09 | 35.99060 | -114.91438 | 6779 ft | 168 kts | 253° |
| 2026-04-25 23:10 | 35.98823 | -114.92825 | 6523 ft | 166 kts | 255° |
| 2026-04-25 23:10 | 35.98631 | -114.94231 | 6281 ft | 163 kts | 257° |
| 2026-04-25 23:10 | 35.98463 | -114.95605 | 6039 ft | 161 kts | 257° |
| 2026-04-25 23:10 | 35.98304 | -114.96946 | 5801 ft | 159 kts | 257° |
| 2026-04-25 23:11 | 35.98152 | -114.98271 | 5664 ft | 151 kts | 259° |
| 2026-04-25 23:11 | 35.98097 | -114.98883 | 5650 ft | 145 kts | 258° |
| 2026-04-25 23:11 | 35.97958 | -115.00051 | 5640 ft | 132 kts | 256° |
| 2026-04-25 23:11 | 35.97809 | -115.01152 | 5639 ft | 126 kts | 255° |
| 2026-04-25 23:12 | 35.97668 | -115.02223 | 5648 ft | 131 kts | 254° |
| 2026-04-25 23:12 | 35.97505 | -115.03373 | 5707 ft | 142 kts | 255° |
| 2026-04-25 23:12 | 35.97371 | -115.04563 | 5653 ft | 138 kts | 257° |
| 2026-04-25 23:12 | 35.97261 | -115.05750 | 5470 ft | 144 kts | 258° |
| 2026-04-25 23:13 | 35.97149 | -115.07013 | 5222 ft | 151 kts | 258° |
| 2026-04-25 23:13 | 35.97029 | -115.08334 | 4972 ft | 157 kts | 259° |
| 2026-04-25 23:13 | 35.96898 | -115.09673 | 4792 ft | 156 kts | 257° |
| 2026-04-25 23:13 | 35.96769 | -115.10959 | 4749 ft | 148 kts | 257° |
| 2026-04-25 23:14 | 35.96656 | -115.12183 | 4645 ft | 131 kts | 259° |
| 2026-04-25 23:14 | 35.96574 | -115.13225 | 4480 ft | 118 kts | 255° |
| 2026-04-25 23:14 | 35.96365 | -115.14167 | 4335 ft | 105 kts | 241° |
| 2026-04-25 23:14 | 35.95940 | -115.14845 | 4202 ft | 97 kts | 219° |
| 2026-04-25 23:15 | 35.95354 | -115.15248 | 4024 ft | 98 kts | 202° |
| 2026-04-25 23:15 | 35.94684 | -115.15218 | 3867 ft | 107 kts | 167° |
| 2026-04-25 23:15 | 35.94151 | -115.14482 | 3598 ft | 131 kts | 117° |
| 2026-04-25 23:15 | 35.94418 | -115.13393 | 3295 ft | 150 kts | 38° |
| 2026-04-25 23:16 | 35.95377 | -115.13246 | 3073 ft | 144 kts | 346° |
| 2026-04-25 23:16 | 35.96498 | -115.13429 | 3173 ft | 182 kts | 344° |
| 2026-04-25 23:16 | 35.97831 | -115.13751 | 3584 ft | 209 kts | 343° |
| 2026-04-25 23:16 | 35.99143 | -115.14500 | 4145 ft | 203 kts | 308° |
| 2026-04-25 23:17 | 35.99615 | -115.16016 | 4293 ft | 191 kts | 261° |
| 2026-04-25 23:17 | 35.98955 | -115.17316 | 4414 ft | 180 kts | 211° |
| 2026-04-25 23:17 | 35.97725 | -115.17680 | 4252 ft | 190 kts | 190° |
| 2026-04-25 23:17 | 35.96444 | -115.17757 | 4321 ft | 168 kts | 185° |
| 2026-04-25 23:18 | 35.95345 | -115.17767 | 4133 ft | 151 kts | 185° |
| 2026-04-25 23:18 | 35.94399 | -115.17457 | 4049 ft | 131 kts | 151° |
| 2026-04-25 23:18 | 35.93868 | -115.16501 | 3649 ft | 145 kts | 119° |
| 2026-04-25 23:18 | 35.93728 | -115.15266 | 3305 ft | 147 kts | 99° |
| 2026-04-25 23:19 | 35.93951 | -115.14078 | 3131 ft | 145 kts | 65° |
| 2026-04-25 23:19 | 35.94748 | -115.13453 | 2928 ft | 135 kts | 357° |
| 2026-04-25 23:19 | 35.95673 | -115.13530 | 2693 ft | 132 kts | 349° |
| 2026-04-25 23:19 | 35.96592 | -115.13550 | 2486 ft | 128 kts | 358° |
| 2026-04-25 23:20 | 35.97414 | -115.13540 | 2434 ft | 104 kts | 1° |
| 2026-04-25 23:20 | 35.97872 | -115.13536 | 2415 ft | 36 kts | 0° |
| 2026-04-25 23:20 | 35.98025 | -115.13547 | 2411 ft | 9 kts | 303° |
| 2026-04-25 23:20 | 35.98027 | -115.13622 | 2407 ft | 6 kts | 229° |
| 2026-04-25 23:21 | 35.98001 | -115.13637 | 2408 ft | 3 kts | 189° |
| 2026-04-25 23:21 | 35.97975 | -115.13637 | 2410 ft | 4 kts | 180° |
| 2026-04-25 23:21 | 35.97934 | -115.13637 | 2411 ft | 8 kts | 181° |
| 2026-04-25 23:21 | 35.97861 | -115.13638 | 2414 ft | 11 kts | 180° |
| 2026-04-25 23:22 | 35.97778 | -115.13639 | 2417 ft | 10 kts | 181° |
| 2026-04-25 23:22 | 35.97747 | -115.13678 | 2418 ft | 7 kts | 279° |
| 2026-04-25 23:22 | 35.97753 | -115.13768 | 2416 ft | 12 kts | 273° |
| 2026-04-25 23:23 | 35.97730 | -115.13821 | 2416 ft | 0 kts | 180° |
| 2026-04-25 23:23 | 35.97728 | -115.13821 | 2416 ft | 0 kts | 179° |